createdAt,value
2023-03-12T00:01:20.185Z,99312.34
2023-03-12T00:03:49.643Z,99330.00
2023-03-12T00:06:19.702Z,99327.11
2023-03-12T00:08:49.112Z,99333.46
2023-03-12T00:11:19.693Z,99336.85
2023-03-12T00:13:56.108Z,99339.53
2023-03-12T00:16:25.051Z,99345.13
2023-03-12T00:18:55.199Z,99348.96
2023-03-12T00:21:24.315Z,99355.46
2023-03-12T00:23:53.100Z,99376.23
2023-03-12T00:26:22.206Z,99378.17
2023-03-12T00:28:50.981Z,99381.30
2023-03-12T00:31:21.152Z,99391.30
2023-03-12T00:33:50.364Z,99390.88
2023-03-12T00:36:21.516Z,99400.91
2023-03-12T00:38:50.429Z,99399.00
2023-03-12T00:41:20.240Z,99408.77
2023-03-12T00:43:50.192Z,99411.40
2023-03-12T00:46:20.209Z,99416.54
2023-03-12T00:48:48.871Z,99423.91
2023-03-12T00:51:17.031Z,99427.39
2023-03-12T00:53:45.310Z,99432.53
2023-03-12T00:56:13.786Z,99439.08
2023-03-12T00:58:43.092Z,99455.77
2023-03-12T01:01:11.762Z,99456.04
2023-03-12T01:03:40.124Z,99460.58
2023-03-12T01:06:09.500Z,99463.95
2023-03-12T01:08:38.149Z,99469.46
2023-03-12T01:11:06.822Z,99472.30
2023-03-12T01:13:35.009Z,99479.77
2023-03-12T01:16:03.322Z,99491.99
2023-03-12T01:18:31.861Z,99494.07
2023-03-12T01:21:00.346Z,99505.30
2023-03-12T01:23:28.523Z,99521.77
2023-03-12T01:25:56.788Z,99533.72
2023-03-12T01:28:26.498Z,99540.21
2023-03-12T01:30:54.781Z,99541.85
2023-03-12T01:33:23.185Z,99546.92
2023-03-12T01:35:51.680Z,99552.15
2023-03-12T01:38:21.089Z,99547.73
2023-03-12T01:40:49.424Z,99557.61
2023-03-12T01:43:25.673Z,99558.36
2023-03-12T01:46:22.975Z,99557.80
2023-03-12T01:49:01.442Z,99560.05
2023-03-12T01:51:36.984Z,99562.59
2023-03-12T01:54:09.993Z,99563.59
2023-03-12T01:56:39.200Z,99564.30
2023-03-12T01:59:14.327Z,99562.98
2023-03-12T02:01:44.430Z,99571.20
2023-03-12T02:04:16.067Z,99579.38
2023-03-12T02:06:51.342Z,99573.60
2023-03-12T02:09:21.753Z,99581.77
2023-03-12T02:11:50.435Z,99582.38
2023-03-12T02:14:20.757Z,99597.29
2023-03-12T02:16:49.191Z,99604.70
2023-03-12T02:20:00.201Z,99616.78
2023-03-12T02:22:30.202Z,99618.29
2023-03-12T02:25:13.155Z,99620.40
2023-03-12T02:27:42.663Z,99627.06
2023-03-12T02:30:17.204Z,99639.20
2023-03-12T02:32:48.823Z,99647.63
2023-03-12T02:35:18.031Z,99655.30
2023-03-12T02:37:55.455Z,99660.58
2023-03-12T02:40:35.165Z,99666.92
2023-03-12T02:43:07.725Z,99676.95
2023-03-12T02:45:38.423Z,99684.88
2023-03-12T02:48:09.398Z,99687.80
2023-03-12T02:50:37.592Z,99689.70
2023-03-12T02:53:09.575Z,99697.38
2023-03-12T02:55:38.338Z,99706.20
2023-03-12T02:58:06.715Z,99707.27
2023-03-12T03:00:36.120Z,99709.34
2023-03-12T03:03:04.811Z,99718.31
2023-03-12T03:05:33.282Z,99723.93
2023-03-12T03:08:01.459Z,99734.79
2023-03-12T03:10:30.833Z,99743.81
2023-03-12T03:12:59.962Z,99754.22
2023-03-12T03:15:28.410Z,99760.47
2023-03-12T03:17:57.016Z,99753.89
2023-03-12T03:20:26.845Z,99758.63
2023-03-12T03:22:55.003Z,99769.63
2023-03-12T03:25:23.795Z,99772.16
2023-03-12T03:27:52.375Z,99772.96
2023-03-12T03:30:21.475Z,99779.67
2023-03-12T03:32:51.184Z,99783.20
2023-03-12T03:35:19.968Z,99782.17
2023-03-12T03:37:48.349Z,99785.59
2023-03-12T03:40:16.916Z,99786.59
2023-03-12T03:42:45.117Z,99787.45
2023-03-12T03:45:13.382Z,99780.20
2023-03-12T03:47:42.270Z,99776.17
2023-03-12T03:50:13.771Z,99771.39
2023-03-12T03:52:41.896Z,99776.77
2023-03-12T03:55:10.578Z,99782.41
2023-03-12T03:57:38.853Z,99781.58
2023-03-12T04:00:13.177Z,99796.13
2023-03-12T04:02:45.747Z,99800.79
2023-03-12T04:05:16.347Z,99803.09
2023-03-12T04:07:45.577Z,99802.95
2023-03-12T04:10:14.848Z,99811.20
2023-03-12T04:12:43.053Z,99816.89
2023-03-12T04:15:11.430Z,99816.65
2023-03-12T04:17:39.983Z,99819.45
2023-03-12T04:20:11.384Z,99823.59
2023-03-12T04:22:41.170Z,99823.54
2023-03-12T04:25:10.060Z,99834.50
2023-03-12T04:27:38.659Z,99842.89
2023-03-12T04:30:07.537Z,99855.70
2023-03-12T04:32:36.444Z,99866.53
2023-03-12T04:35:05.522Z,99867.41
2023-03-12T04:37:34.532Z,99862.35
2023-03-12T04:40:07.717Z,99860.14
2023-03-12T04:42:36.903Z,99856.65
2023-03-12T04:45:07.290Z,99857.64
2023-03-12T04:47:37.142Z,99868.30
2023-03-12T04:50:05.927Z,99867.56
2023-03-12T04:52:34.615Z,99874.11
2023-03-12T04:55:03.507Z,99889.92
2023-03-12T04:57:31.886Z,99900.48
2023-03-12T05:00:00.168Z,99909.77
2023-03-12T05:02:28.660Z,99914.30
2023-03-12T05:04:57.914Z,99918.39
2023-03-12T05:07:26.633Z,99930.11
2023-03-12T05:09:54.912Z,99935.58
2023-03-12T05:12:23.178Z,99945.71
2023-03-12T05:14:51.358Z,99946.14
2023-03-12T05:17:20.356Z,99951.33
2023-03-12T05:19:48.640Z,99963.95
2023-03-12T05:22:17.997Z,99973.04
2023-03-12T05:24:46.195Z,99976.73
2023-03-12T05:27:14.477Z,99981.77
2023-03-12T05:29:43.063Z,99993.52
2023-03-12T05:32:11.332Z,99996.79
2023-03-12T05:34:39.814Z,99997.00
2023-03-12T05:37:07.992Z,99997.35
2023-03-12T05:39:36.309Z,100005.16
2023-03-12T05:42:05.950Z,100012.29
2023-03-12T05:44:35.705Z,100017.45
2023-03-12T05:47:04.329Z,100025.72
2023-03-12T05:49:32.440Z,100039.81
2023-03-12T05:52:00.929Z,100040.96
2023-03-12T05:54:29.366Z,100043.88
2023-03-12T05:56:57.997Z,100061.95
2023-03-12T05:59:27.530Z,100067.75
2023-03-12T06:01:56.303Z,100074.52
2023-03-12T06:04:24.651Z,100080.88
2023-03-12T06:06:54.284Z,100084.70
2023-03-12T06:09:23.083Z,100087.67
2023-03-12T06:11:51.331Z,100093.45
2023-03-12T06:14:19.622Z,100097.70
2023-03-12T06:16:48.585Z,100107.98
2023-03-12T06:19:16.821Z,100119.39
2023-03-12T06:21:48.031Z,100127.48
2023-03-12T06:24:16.387Z,100139.63
2023-03-12T06:26:49.213Z,100142.78
2023-03-12T06:29:17.517Z,100141.41
2023-03-12T06:31:45.663Z,100147.38
2023-03-12T06:34:14.399Z,100149.79
2023-03-12T06:36:42.520Z,100147.11
2023-03-12T06:39:10.631Z,100156.21
2023-03-12T06:41:38.818Z,100156.10
2023-03-12T06:44:07.098Z,100150.05
2023-03-12T06:46:35.425Z,100151.89
2023-03-12T06:49:03.748Z,100157.85
2023-03-12T06:51:31.928Z,100163.19
2023-03-12T06:54:02.624Z,100166.14
2023-03-12T06:56:32.645Z,100174.63
2023-03-12T06:59:01.046Z,100170.42
2023-03-12T07:01:29.199Z,100183.30
2023-03-12T07:03:57.402Z,100195.13
2023-03-12T07:06:25.858Z,100200.81
2023-03-12T07:08:54.259Z,100214.08
2023-03-12T07:11:22.641Z,100223.40
2023-03-12T07:13:51.852Z,100232.75
2023-03-12T07:16:20.086Z,100240.70
2023-03-12T07:18:48.518Z,100244.09
2023-03-12T07:21:22.864Z,100238.48
2023-03-12T07:23:51.565Z,100239.89
2023-03-12T07:26:20.813Z,100241.55
2023-03-12T07:28:49.072Z,100252.18
2023-03-12T07:31:17.297Z,100248.21
2023-03-12T07:33:45.687Z,100246.42
2023-03-12T07:36:14.287Z,100254.40
2023-03-12T07:38:42.586Z,100255.23
2023-03-12T07:41:11.219Z,100249.93
2023-03-12T07:43:39.792Z,100250.08
2023-03-12T07:46:07.917Z,100251.55
2023-03-12T07:48:36.095Z,100255.73
2023-03-12T07:51:04.679Z,100262.88
2023-03-12T07:53:33.264Z,100264.69
2023-03-12T07:56:01.534Z,100271.86
2023-03-12T07:58:30.110Z,100281.65
2023-03-12T08:00:58.515Z,100286.23
2023-03-12T08:03:26.942Z,100280.43
2023-03-12T08:06:00.908Z,100278.33
2023-03-12T08:08:31.444Z,100274.96
2023-03-12T08:11:00.726Z,100273.70
2023-03-12T08:13:29.230Z,100283.40
2023-03-12T08:15:57.548Z,100295.36
2023-03-12T08:18:27.022Z,100301.67
2023-03-12T08:20:55.355Z,100315.27
2023-03-12T08:23:23.953Z,100325.60
2023-03-12T08:25:53.413Z,100315.17
2023-03-12T08:28:23.582Z,100316.06
2023-03-12T08:30:56.213Z,100319.75
2023-03-12T08:33:24.476Z,100316.19
2023-03-12T08:35:52.805Z,100320.88
2023-03-12T08:38:21.697Z,100327.23
2023-03-12T08:41:00.710Z,100341.55
2023-03-12T08:43:29.643Z,100344.31
2023-03-12T08:45:59.566Z,100347.23
2023-03-12T08:48:29.330Z,100345.91
2023-03-12T08:50:59.349Z,100354.85
2023-03-12T08:53:27.723Z,100351.64
2023-03-12T08:55:56.612Z,100354.22
2023-03-12T08:58:26.433Z,100354.54
2023-03-12T09:00:56.120Z,100360.05
2023-03-12T09:03:25.179Z,100370.14
2023-03-12T09:06:13.428Z,100369.25
2023-03-12T09:08:42.488Z,100372.78
2023-03-12T09:11:13.255Z,100383.47
2023-03-12T09:14:22.268Z,100384.40
2023-03-12T09:16:32.824Z,100388.28
2023-03-12T09:19:00.927Z,100390.48
2023-03-12T09:21:29.119Z,100389.57
2023-03-12T09:23:57.881Z,100387.02
2023-03-12T09:26:26.198Z,100393.88
2023-03-12T09:28:54.277Z,100400.08
2023-03-12T09:31:22.437Z,100404.38
2023-03-12T09:33:51.742Z,100400.04
2023-03-12T09:36:19.850Z,100402.06
2023-03-12T09:38:47.939Z,100404.19
2023-03-12T09:41:20.752Z,100409.55
2023-03-12T09:44:06.167Z,100405.09
2023-03-12T09:46:46.231Z,100405.26
2023-03-12T09:49:21.741Z,100399.30
2023-03-12T09:51:55.860Z,100396.29
2023-03-12T09:54:32.395Z,100402.04
2023-03-12T09:57:04.541Z,100407.09
2023-03-12T09:59:32.748Z,100407.83
2023-03-12T10:02:17.796Z,100408.08
2023-03-12T10:05:05.497Z,100404.92
2023-03-12T10:07:46.990Z,100398.77
2023-03-12T10:10:24.416Z,100400.39
2023-03-12T10:13:28.254Z,100408.08
2023-03-12T10:15:59.940Z,100397.13
2023-03-12T10:18:28.530Z,100387.91
2023-03-12T10:21:02.956Z,100397.68
2023-03-12T10:23:40.144Z,100400.30
2023-03-12T10:26:19.726Z,100404.80
2023-03-12T10:29:16.774Z,100410.46
2023-03-12T10:31:54.061Z,100407.21
2023-03-12T10:34:51.302Z,100407.52
2023-03-12T10:37:48.820Z,100408.92
2023-03-12T10:40:20.644Z,100412.48
2023-03-12T10:42:49.292Z,100411.52
2023-03-12T10:45:55.481Z,100403.64
2023-03-12T10:48:25.927Z,100401.60
2023-03-12T10:51:09.150Z,100396.02
2023-03-12T10:53:39.237Z,100393.35
2023-03-12T10:56:10.783Z,100395.46
2023-03-12T10:58:42.245Z,100402.42
2023-03-12T11:01:16.531Z,100399.17
2023-03-12T11:03:46.358Z,100393.92
2023-03-12T11:06:35.923Z,100397.61
2023-03-12T11:09:18.177Z,100400.35
2023-03-12T11:11:48.192Z,100407.54
2023-03-12T11:14:21.005Z,100409.13
2023-03-12T11:16:50.140Z,100408.02
2023-03-12T11:19:33.506Z,100404.64
2023-03-12T11:22:05.274Z,100398.92
2023-03-12T11:24:33.464Z,100401.19
2023-03-12T11:27:13.329Z,100403.59
2023-03-12T11:29:48.774Z,100397.02
2023-03-12T11:32:19.619Z,100409.55
2023-03-12T11:34:49.861Z,100406.66
2023-03-12T11:37:33.216Z,100411.68
2023-03-12T11:40:01.387Z,100407.63
2023-03-12T11:42:49.643Z,100405.34
2023-03-12T11:45:41.618Z,100410.26
2023-03-12T11:48:09.736Z,100413.31
2023-03-12T11:50:50.010Z,100411.48
2023-03-12T11:54:01.381Z,100410.13
2023-03-12T11:57:08.453Z,100413.81
2023-03-12T11:59:48.894Z,100410.94
2023-03-12T12:02:55.338Z,100413.91
2023-03-12T12:05:38.805Z,100411.85
2023-03-12T12:08:12.710Z,100421.94
2023-03-12T12:10:56.017Z,100423.04
2023-03-12T12:13:26.916Z,100427.33
2023-03-12T12:16:02.376Z,100437.16
2023-03-12T12:18:48.868Z,100434.14
2023-03-12T12:21:54.221Z,100435.83
2023-03-12T12:24:47.626Z,100439.85
2023-03-12T12:27:27.521Z,100438.69
2023-03-12T12:30:14.382Z,100436.85
2023-03-12T12:32:57.607Z,100443.40
2023-03-12T12:35:40.915Z,100431.91
2023-03-12T12:38:18.824Z,100435.75
2023-03-12T12:41:08.116Z,100448.54
2023-03-12T12:43:41.952Z,100447.39
2023-03-12T12:46:26.751Z,100451.84
2023-03-12T12:49:10.229Z,100452.67
2023-03-12T12:51:44.328Z,100447.02
2023-03-12T12:54:35.491Z,100444.45
2023-03-12T12:57:17.103Z,100450.86
2023-03-12T13:00:06.516Z,100454.45
2023-03-12T13:02:39.745Z,100456.01
2023-03-12T13:05:40.053Z,100458.91
2023-03-12T13:08:08.930Z,100457.86
2023-03-12T13:10:53.327Z,100461.22
2023-03-12T13:13:27.497Z,100459.70
2023-03-12T13:16:17.924Z,100463.50
2023-03-12T13:18:58.818Z,100465.66
2023-03-12T13:21:37.398Z,100468.48
2023-03-12T13:24:09.729Z,100468.16
2023-03-12T13:27:00.639Z,100473.30
2023-03-12T13:29:28.729Z,100468.08
2023-03-12T13:31:57.919Z,100465.66
2023-03-12T13:34:32.953Z,100470.71
2023-03-12T13:37:03.517Z,100466.76
2023-03-12T13:39:33.557Z,100468.52
2023-03-12T13:42:22.633Z,100471.05
2023-03-12T13:44:52.341Z,100474.87
2023-03-12T13:47:27.746Z,100478.61
2023-03-12T13:50:04.293Z,100482.85
2023-03-12T13:52:37.816Z,100484.89
2023-03-12T13:55:24.754Z,100481.93
2023-03-12T13:58:04.838Z,100484.21
2023-03-12T14:00:41.737Z,100479.11
2023-03-12T14:03:16.742Z,100479.70
2023-03-12T14:05:51.360Z,100477.89
2023-03-12T14:08:31.292Z,100482.19
2023-03-12T14:11:33.824Z,100484.00
2023-03-12T14:14:26.985Z,100480.27
2023-03-12T14:17:01.561Z,100477.86
2023-03-12T14:19:48.252Z,100481.83
2023-03-12T14:22:23.871Z,100482.36
2023-03-12T14:24:57.322Z,100488.02
2023-03-12T14:27:33.211Z,100491.05
2023-03-12T14:30:13.457Z,100487.70
2023-03-12T14:32:44.071Z,100484.59
2023-03-12T14:35:15.722Z,100481.89
2023-03-12T14:37:51.598Z,100479.33
2023-03-12T14:40:46.953Z,100470.26
2023-03-12T14:43:24.381Z,100460.94
2023-03-12T14:46:04.973Z,100470.88
2023-03-12T14:48:36.626Z,100480.65
2023-03-12T14:51:07.430Z,100485.27
2023-03-12T14:53:38.322Z,100491.23
2023-03-12T14:56:15.721Z,100495.76
2023-03-12T14:58:49.821Z,100496.02
2023-03-12T15:01:31.247Z,100500.52
2023-03-12T15:04:02.072Z,100503.92
2023-03-12T15:06:31.974Z,100504.20
2023-03-12T15:09:04.469Z,100503.32
2023-03-12T15:11:36.153Z,100506.98
2023-03-12T15:14:14.466Z,100513.69
2023-03-12T15:16:44.402Z,100509.23
2023-03-12T15:19:14.181Z,100516.70
2023-03-12T15:21:42.664Z,100524.09
2023-03-12T15:24:13.682Z,100526.93
2023-03-12T15:26:44.003Z,100528.08
2023-03-12T15:29:27.934Z,100529.02
2023-03-12T15:31:59.420Z,100540.18
2023-03-12T15:34:36.402Z,100540.59
2023-03-12T15:37:41.407Z,100546.20
2023-03-12T15:40:36.574Z,100554.51
2023-03-12T15:43:07.763Z,100556.66
2023-03-12T15:45:38.512Z,100567.16
2023-03-12T15:48:29.310Z,100564.83
2023-03-12T15:50:57.940Z,100570.70
2023-03-12T15:53:34.550Z,100574.77
2023-03-12T15:56:06.789Z,100580.09
2023-03-12T15:58:38.023Z,100577.13
2023-03-12T16:01:28.402Z,100581.83
2023-03-12T16:03:56.726Z,100585.15
2023-03-12T16:06:29.930Z,100590.11
2023-03-12T16:09:00.761Z,100603.33
2023-03-12T16:11:31.737Z,100615.02
2023-03-12T16:14:24.702Z,100622.02
2023-03-12T16:16:53.736Z,100630.56
2023-03-12T16:19:23.452Z,100638.38
2023-03-12T16:21:53.689Z,100646.14
2023-03-12T16:24:22.062Z,100649.11
2023-03-12T16:26:55.779Z,100656.05
2023-03-12T16:29:31.664Z,100657.23
2023-03-12T16:32:00.421Z,100660.96
2023-03-12T16:34:29.185Z,100665.04
2023-03-12T16:36:57.915Z,100665.78
2023-03-12T16:39:30.409Z,100673.59
2023-03-12T16:42:00.514Z,100678.34
2023-03-12T16:44:32.428Z,100683.80
2023-03-12T16:47:01.319Z,100694.39
2023-03-12T16:49:29.797Z,100701.67
2023-03-12T16:51:58.065Z,100702.98
2023-03-12T16:54:26.173Z,100708.95
2023-03-12T16:56:54.477Z,100711.11
2023-03-12T16:59:26.868Z,100712.35
2023-03-12T17:01:55.523Z,100712.73
2023-03-12T17:04:23.723Z,100719.64
2023-03-12T17:06:52.054Z,100724.60
2023-03-12T17:09:20.141Z,100726.92
2023-03-12T17:11:51.812Z,100730.45
2023-03-12T17:14:22.885Z,100737.27
2023-03-12T17:16:51.405Z,100740.63
2023-03-12T17:19:19.747Z,100747.80
2023-03-12T17:21:48.891Z,100750.56
2023-03-12T17:24:17.088Z,100755.27
2023-03-12T17:26:47.664Z,100757.25
2023-03-12T17:29:15.871Z,100759.50
2023-03-12T17:31:44.060Z,100760.02
2023-03-12T17:34:12.191Z,100767.35
2023-03-12T17:36:41.225Z,100769.17
2023-03-12T17:39:11.186Z,100771.37
2023-03-12T17:41:39.758Z,100773.66
2023-03-12T17:44:08.884Z,100777.44
2023-03-12T17:46:40.678Z,100785.34
2023-03-12T17:49:15.320Z,100788.36
2023-03-12T17:51:45.498Z,100792.31
2023-03-12T17:54:13.653Z,100796.26
2023-03-12T17:56:41.912Z,100796.50
2023-03-12T17:59:10.687Z,100795.61
2023-03-12T18:01:39.262Z,100796.55
2023-03-12T18:04:07.560Z,100797.69
2023-03-12T18:06:35.778Z,100803.02
2023-03-12T18:09:04.412Z,100800.19
2023-03-12T18:11:32.507Z,100802.82
2023-03-12T18:14:00.948Z,100803.81
2023-03-12T18:16:29.676Z,100805.90
2023-03-12T18:18:57.970Z,100806.90
2023-03-12T18:21:26.230Z,100806.71
2023-03-12T18:23:57.490Z,100813.27
2023-03-12T18:26:27.648Z,100817.98
2023-03-12T18:28:56.087Z,100824.23
2023-03-12T18:31:24.203Z,100827.73
2023-03-12T18:33:52.513Z,100828.77
2023-03-12T18:36:20.724Z,100834.81
2023-03-12T18:38:48.911Z,100838.12
2023-03-12T18:41:17.110Z,100840.06
2023-03-12T18:43:45.327Z,100844.42
2023-03-12T18:46:13.873Z,100847.79
2023-03-12T18:48:44.183Z,100855.02
2023-03-12T18:51:12.823Z,100856.54
2023-03-12T18:53:40.963Z,100859.73
2023-03-12T18:56:09.063Z,100869.03
2023-03-12T18:58:37.225Z,100872.32
2023-03-12T19:01:05.662Z,100874.69
2023-03-12T19:03:36.530Z,100882.00
2023-03-12T19:06:05.397Z,100883.06
2023-03-12T19:08:34.455Z,100894.94
2023-03-12T19:11:05.018Z,100896.11
2023-03-12T19:13:33.382Z,100898.97
2023-03-12T19:16:05.005Z,100903.63
2023-03-12T19:18:33.227Z,100906.55
2023-03-12T19:21:02.525Z,100908.02
2023-03-12T19:23:30.812Z,100910.98
2023-03-12T19:25:58.951Z,100910.91
2023-03-12T19:28:27.058Z,100915.60
2023-03-12T19:31:07.792Z,100916.89
2023-03-12T19:33:36.637Z,100920.41
2023-03-12T19:36:05.091Z,100921.67
2023-03-12T19:38:33.946Z,100925.56
2023-03-12T19:41:02.264Z,100928.96
2023-03-12T19:43:30.918Z,100934.14
2023-03-12T19:45:59.191Z,100938.98
2023-03-12T19:48:27.467Z,100943.11
2023-03-12T19:50:56.496Z,100944.58
2023-03-12T19:53:25.096Z,100947.59
2023-03-12T19:55:53.264Z,100950.70
2023-03-12T19:58:21.771Z,100954.88
2023-03-12T20:00:50.087Z,100956.52
2023-03-12T20:03:19.078Z,100959.52
2023-03-12T20:05:47.227Z,100960.64
2023-03-12T20:08:15.436Z,100965.52
2023-03-12T20:10:46.841Z,100971.10
2023-03-12T20:13:17.917Z,100972.50
2023-03-12T20:15:49.753Z,100976.02
2023-03-12T20:18:17.870Z,100982.13
2023-03-12T20:20:47.128Z,100979.33
2023-03-12T20:23:15.510Z,100982.74
2023-03-12T20:25:47.479Z,100986.16
2023-03-12T20:28:16.085Z,100993.58
2023-03-12T20:30:44.581Z,100995.52
2023-03-12T20:33:13.220Z,101004.44
2023-03-12T20:35:41.695Z,101008.13
2023-03-12T20:38:10.023Z,101007.42
2023-03-12T20:40:38.218Z,101009.29
2023-03-12T20:43:06.403Z,101009.36
2023-03-12T20:45:34.908Z,101009.66
2023-03-12T20:48:03.502Z,101008.52
2023-03-12T20:50:32.064Z,101013.60
2023-03-12T20:53:00.224Z,101018.23
2023-03-12T20:55:28.471Z,101017.59
2023-03-12T20:57:57.002Z,101021.59
2023-03-12T21:00:25.487Z,101031.41
2023-03-12T21:02:53.739Z,101029.53
2023-03-12T21:05:24.928Z,101030.83
2023-03-12T21:07:54.172Z,101033.84
2023-03-12T21:10:22.289Z,101036.88
2023-03-12T21:12:50.679Z,101040.16
2023-03-12T21:15:19.072Z,101043.81
2023-03-12T21:17:47.476Z,101047.72
2023-03-12T21:20:17.394Z,101054.70
2023-03-12T21:22:47.029Z,101055.76
2023-03-12T21:25:15.877Z,101056.23
2023-03-12T21:27:51.138Z,101062.80
2023-03-12T21:30:20.040Z,101061.05
2023-03-12T21:32:48.370Z,101060.75
2023-03-12T21:35:16.781Z,101067.68
2023-03-12T21:37:44.937Z,101068.77
2023-03-12T21:40:14.395Z,101070.99
2023-03-12T21:42:42.737Z,101072.02
2023-03-12T21:45:11.902Z,101073.83
2023-03-12T21:47:41.362Z,101075.35
2023-03-12T21:50:10.530Z,101077.83
2023-03-12T21:52:43.984Z,101081.98
2023-03-12T21:55:12.190Z,101089.88
2023-03-12T21:57:40.600Z,101093.52
2023-03-12T22:00:13.376Z,101092.42
2023-03-12T22:02:43.943Z,101093.08
2023-03-12T22:05:12.642Z,101096.49
2023-03-12T22:07:41.008Z,101095.91
2023-03-12T22:10:12.106Z,101098.27
2023-03-12T22:12:40.835Z,101103.87
2023-03-12T22:15:09.813Z,101102.11
2023-03-12T22:17:38.121Z,101107.11
2023-03-12T22:20:08.122Z,101113.48
2023-03-12T22:22:36.536Z,101114.77
2023-03-12T22:25:05.046Z,101121.75
2023-03-12T22:27:33.385Z,101123.92
2023-03-12T22:30:01.643Z,101133.70
2023-03-12T22:32:30.633Z,101137.91
2023-03-12T22:35:01.217Z,101141.86
2023-03-12T22:37:30.150Z,101144.93
2023-03-12T22:40:01.964Z,101150.76
2023-03-12T22:42:30.162Z,101151.18
2023-03-12T22:44:58.515Z,101156.02
2023-03-12T22:47:26.736Z,101155.30
2023-03-12T22:49:58.316Z,101157.77
2023-03-12T22:52:26.534Z,101162.27
2023-03-12T22:54:54.654Z,101163.73
2023-03-12T22:57:22.845Z,101167.56
2023-03-12T22:59:51.074Z,101171.89
2023-03-12T23:02:19.441Z,101171.91
2023-03-12T23:04:48.711Z,101171.52
2023-03-12T23:07:17.666Z,101173.48
2023-03-12T23:09:47.742Z,101177.77
2023-03-12T23:12:15.902Z,101179.25
2023-03-12T23:14:44.221Z,101179.66
2023-03-12T23:17:12.671Z,101183.45
2023-03-12T23:19:43.744Z,101185.60
2023-03-12T23:22:12.320Z,101194.30
2023-03-12T23:24:40.787Z,101197.34
2023-03-12T23:27:09.223Z,101202.63
2023-03-12T23:29:37.546Z,101201.59
2023-03-12T23:32:06.472Z,101200.26
2023-03-12T23:34:34.764Z,101200.71
2023-03-12T23:37:03.435Z,101204.60
2023-03-12T23:39:32.802Z,101203.79
2023-03-12T23:42:03.702Z,101214.63
2023-03-12T23:44:32.333Z,101216.92
2023-03-12T23:47:00.842Z,101220.45
2023-03-12T23:49:29.100Z,101224.69
2023-03-12T23:51:57.594Z,101225.80
2023-03-12T23:54:25.719Z,101229.30
2023-03-12T23:56:56.402Z,101232.92
2023-03-12T23:59:24.606Z,101233.13
